sensor_id;sensor_type;location;lat;lon;timestamp;P1;durP1;ratioP1;P2;durP2;ratioP2
81154;SDS011;70631;50.436;7.826;2023-11-21T00:01:37;19.38;;;8.50;;
81154;SDS011;70631;50.436;7.826;2023-11-21T00:04:02;14.93;;;7.57;;
81154;SDS011;70631;50.436;7.826;2023-11-21T00:06:28;16.40;;;9.25;;
81154;SDS011;70631;50.436;7.826;2023-11-21T00:08:55;19.10;;;9.63;;
81154;SDS011;70631;50.436;7.826;2023-11-21T00:11:20;19.10;;;10.25;;
81154;SDS011;70631;50.436;7.826;2023-11-21T00:13:46;16.85;;;9.00;;
81154;SDS011;70631;50.436;7.826;2023-11-21T00:16:11;18.17;;;9.23;;
81154;SDS011;70631;50.436;7.826;2023-11-21T00:18:36;16.17;;;8.73;;
81154;SDS011;70631;50.436;7.826;2023-11-21T00:21:02;18.80;;;8.18;;
81154;SDS011;70631;50.436;7.826;2023-11-21T00:23:28;14.60;;;7.55;;
81154;SDS011;70631;50.436;7.826;2023-11-21T00:25:53;20.13;;;9.80;;
81154;SDS011;70631;50.436;7.826;2023-11-21T00:28:19;15.65;;;9.35;;
81154;SDS011;70631;50.436;7.826;2023-11-21T00:30:44;17.50;;;9.13;;
81154;SDS011;70631;50.436;7.826;2023-11-21T00:33:10;18.10;;;10.00;;
81154;SDS011;70631;50.436;7.826;2023-11-21T00:35:35;20.48;;;10.05;;
81154;SDS011;70631;50.436;7.826;2023-11-21T00:38:01;14.30;;;8.10;;
81154;SDS011;70631;50.436;7.826;2023-11-21T00:40:28;18.13;;;9.18;;
81154;SDS011;70631;50.436;7.826;2023-11-21T00:42:53;16.80;;;8.75;;
81154;SDS011;70631;50.436;7.826;2023-11-21T00:45:19;17.40;;;8.17;;
81154;SDS011;70631;50.436;7.826;2023-11-21T00:47:44;15.70;;;9.47;;
81154;SDS011;70631;50.436;7.826;2023-11-21T00:50:09;19.20;;;8.63;;
81154;SDS011;70631;50.436;7.826;2023-11-21T00:52:34;14.57;;;8.25;;
81154;SDS011;70631;50.436;7.826;2023-11-21T00:55:01;19.77;;;8.40;;
81154;SDS011;70631;50.436;7.826;2023-11-21T00:57:27;18.90;;;9.63;;
81154;SDS011;70631;50.436;7.826;2023-11-21T00:59:53;17.10;;;9.13;;
81154;SDS011;70631;50.436;7.826;2023-11-21T01:02:18;17.83;;;9.67;;
81154;SDS011;70631;50.436;7.826;2023-11-21T01:04:43;20.73;;;9.00;;
81154;SDS011;70631;50.436;7.826;2023-11-21T01:07:09;18.50;;;10.00;;
81154;SDS011;70631;50.436;7.826;2023-11-21T01:09:34;19.10;;;8.57;;
81154;SDS011;70631;50.436;7.826;2023-11-21T01:11:59;19.20;;;9.60;;
81154;SDS011;70631;50.436;7.826;2023-11-21T01:14:24;17.67;;;9.53;;
81154;SDS011;70631;50.436;7.826;2023-11-21T01:16:51;26.95;;;10.00;;
81154;SDS011;70631;50.436;7.826;2023-11-21T01:19:17;20.73;;;11.00;;
81154;SDS011;70631;50.436;7.826;2023-11-21T01:21:42;21.87;;;10.13;;
81154;SDS011;70631;50.436;7.826;2023-11-21T01:24:07;20.13;;;8.63;;
81154;SDS011;70631;50.436;7.826;2023-11-21T01:26:33;20.75;;;9.52;;
81154;SDS011;70631;50.436;7.826;2023-11-21T01:28:58;20.73;;;8.77;;
81154;SDS011;70631;50.436;7.826;2023-11-21T01:31:24;17.00;;;8.35;;
81154;SDS011;70631;50.436;7.826;2023-11-21T01:33:52;18.65;;;8.50;;
81154;SDS011;70631;50.436;7.826;2023-11-21T01:36:17;17.53;;;9.60;;
81154;SDS011;70631;50.436;7.826;2023-11-21T01:38:42;17.27;;;9.10;;
81154;SDS011;70631;50.436;7.826;2023-11-21T01:41:08;18.23;;;8.27;;
81154;SDS011;70631;50.436;7.826;2023-11-21T01:43:36;15.35;;;7.43;;
81154;SDS011;70631;50.436;7.826;2023-11-21T01:46:02;17.10;;;9.07;;
81154;SDS011;70631;50.436;7.826;2023-11-21T01:48:27;16.40;;;8.80;;
81154;SDS011;70631;50.436;7.826;2023-11-21T01:50:53;16.88;;;8.65;;
81154;SDS011;70631;50.436;7.826;2023-11-21T01:53:19;15.53;;;7.40;;
81154;SDS011;70631;50.436;7.826;2023-11-21T01:55:45;20.10;;;9.00;;
81154;SDS011;70631;50.436;7.826;2023-11-21T01:58:11;15.63;;;8.43;;
81154;SDS011;70631;50.436;7.826;2023-11-21T02:00:37;20.17;;;10.05;;
81154;SDS011;70631;50.436;7.826;2023-11-21T02:03:03;14.00;;;7.88;;
81154;SDS011;70631;50.436;7.826;2023-11-21T02:05:29;15.05;;;8.65;;
81154;SDS011;70631;50.436;7.826;2023-11-21T02:07:54;15.75;;;8.13;;
81154;SDS011;70631;50.436;7.826;2023-11-21T02:10:19;14.33;;;7.73;;
81154;SDS011;70631;50.436;7.826;2023-11-21T02:12:48;16.00;;;8.07;;
81154;SDS011;70631;50.436;7.826;2023-11-21T02:15:17;15.30;;;7.93;;
81154;SDS011;70631;50.436;7.826;2023-11-21T02:17:46;19.70;;;8.80;;
81154;SDS011;70631;50.436;7.826;2023-11-21T02:20:15;16.63;;;8.23;;
81154;SDS011;70631;50.436;7.826;2023-11-21T02:22:42;15.27;;;7.80;;
81154;SDS011;70631;50.436;7.826;2023-11-21T02:25:09;18.52;;;9.25;;
81154;SDS011;70631;50.436;7.826;2023-11-21T02:27:34;17.93;;;8.07;;
81154;SDS011;70631;50.436;7.826;2023-11-21T02:29:59;16.57;;;7.80;;
81154;SDS011;70631;50.436;7.826;2023-11-21T02:32:26;13.50;;;7.75;;
81154;SDS011;70631;50.436;7.826;2023-11-21T02:34:51;15.48;;;7.80;;
81154;SDS011;70631;50.436;7.826;2023-11-21T02:37:17;15.45;;;7.78;;
81154;SDS011;70631;50.436;7.826;2023-11-21T02:39:42;18.20;;;8.00;;
81154;SDS011;70631;50.436;7.826;2023-11-21T02:42:07;12.93;;;7.90;;
81154;SDS011;70631;50.436;7.826;2023-11-21T02:44:33;13.55;;;8.05;;
81154;SDS011;70631;50.436;7.826;2023-11-21T02:46:59;14.85;;;7.57;;
81154;SDS011;70631;50.436;7.826;2023-11-21T02:49:25;15.23;;;7.30;;
81154;SDS011;70631;50.436;7.826;2023-11-21T02:51:53;12.30;;;6.18;;
81154;SDS011;70631;50.436;7.826;2023-11-21T02:54:19;11.50;;;6.32;;
81154;SDS011;70631;50.436;7.826;2023-11-21T02:56:46;10.13;;;6.07;;
81154;SDS011;70631;50.436;7.826;2023-11-21T02:59:12;11.53;;;5.63;;
81154;SDS011;70631;50.436;7.826;2023-11-21T03:01:37;9.20;;;5.90;;
81154;SDS011;70631;50.436;7.826;2023-11-21T03:04:02;10.47;;;5.10;;
81154;SDS011;70631;50.436;7.826;2023-11-21T03:06:28;6.35;;;4.53;;
81154;SDS011;70631;50.436;7.826;2023-11-21T03:08:53;9.97;;;5.83;;
81154;SDS011;70631;50.436;7.826;2023-11-21T03:11:18;6.83;;;4.40;;
81154;SDS011;70631;50.436;7.826;2023-11-21T03:13:44;7.90;;;4.77;;
81154;SDS011;70631;50.436;7.826;2023-11-21T03:16:09;8.82;;;4.03;;
81154;SDS011;70631;50.436;7.826;2023-11-21T03:18:39;8.15;;;4.53;;
81154;SDS011;70631;50.436;7.826;2023-11-21T03:21:04;7.55;;;4.00;;
81154;SDS011;70631;50.436;7.826;2023-11-21T03:23:31;6.75;;;3.80;;
81154;SDS011;70631;50.436;7.826;2023-11-21T03:25:56;8.07;;;4.28;;
81154;SDS011;70631;50.436;7.826;2023-11-21T03:28:22;7.63;;;3.28;;
81154;SDS011;70631;50.436;7.826;2023-11-21T03:30:48;5.40;;;2.75;;
81154;SDS011;70631;50.436;7.826;2023-11-21T03:33:13;6.17;;;2.83;;
81154;SDS011;70631;50.436;7.826;2023-11-21T03:35:39;3.77;;;2.70;;
81154;SDS011;70631;50.436;7.826;2023-11-21T03:38:06;4.72;;;2.78;;
81154;SDS011;70631;50.436;7.826;2023-11-21T03:40:32;6.30;;;2.70;;
81154;SDS011;70631;50.436;7.826;2023-11-21T03:42:57;3.13;;;2.20;;
81154;SDS011;70631;50.436;7.826;2023-11-21T03:45:22;3.77;;;1.97;;
81154;SDS011;70631;50.436;7.826;2023-11-21T03:47:48;2.83;;;2.27;;
81154;SDS011;70631;50.436;7.826;2023-11-21T03:50:13;5.13;;;2.43;;
81154;SDS011;70631;50.436;7.826;2023-11-21T03:52:38;2.97;;;1.53;;
81154;SDS011;70631;50.436;7.826;2023-11-21T03:55:04;3.78;;;1.77;;
81154;SDS011;70631;50.436;7.826;2023-11-21T03:57:29;2.67;;;1.88;;
81154;SDS011;70631;50.436;7.826;2023-11-21T03:59:54;6.27;;;1.83;;
81154;SDS011;70631;50.436;7.826;2023-11-21T04:02:20;2.60;;;1.80;;
81154;SDS011;70631;50.436;7.826;2023-11-21T04:04:45;1.77;;;1.50;;
81154;SDS011;70631;50.436;7.826;2023-11-21T04:07:10;3.35;;;1.63;;
81154;SDS011;70631;50.436;7.826;2023-11-21T04:09:36;4.33;;;2.20;;
81154;SDS011;70631;50.436;7.826;2023-11-21T04:12:01;1.77;;;1.42;;
81154;SDS011;70631;50.436;7.826;2023-11-21T04:14:27;2.55;;;1.80;;
81154;SDS011;70631;50.436;7.826;2023-11-21T04:16:52;2.37;;;1.70;;
81154;SDS011;70631;50.436;7.826;2023-11-21T04:19:18;2.58;;;1.45;;
81154;SDS011;70631;50.436;7.826;2023-11-21T04:21:44;3.03;;;2.28;;
81154;SDS011;70631;50.436;7.826;2023-11-21T04:24:09;1.75;;;1.58;;
81154;SDS011;70631;50.436;7.826;2023-11-21T04:26:35;3.90;;;2.00;;
81154;SDS011;70631;50.436;7.826;2023-11-21T04:29:00;4.05;;;1.95;;
81154;SDS011;70631;50.436;7.826;2023-11-21T04:31:26;4.83;;;2.33;;
81154;SDS011;70631;50.436;7.826;2023-11-21T04:33:51;5.05;;;2.38;;
81154;SDS011;70631;50.436;7.826;2023-11-21T04:36:16;4.33;;;2.70;;
81154;SDS011;70631;50.436;7.826;2023-11-21T04:38:42;5.90;;;2.75;;
81154;SDS011;70631;50.436;7.826;2023-11-21T04:41:07;2.93;;;2.20;;
81154;SDS011;70631;50.436;7.826;2023-11-21T04:43:33;5.43;;;2.72;;
81154;SDS011;70631;50.436;7.826;2023-11-21T04:45:58;4.57;;;2.87;;
81154;SDS011;70631;50.436;7.826;2023-11-21T04:48:23;4.47;;;2.90;;
81154;SDS011;70631;50.436;7.826;2023-11-21T04:50:49;4.03;;;2.80;;
81154;SDS011;70631;50.436;7.826;2023-11-21T04:53:14;6.40;;;4.20;;
81154;SDS011;70631;50.436;7.826;2023-11-21T04:55:39;6.77;;;4.10;;
81154;SDS011;70631;50.436;7.826;2023-11-21T04:58:08;7.10;;;4.25;;
81154;SDS011;70631;50.436;7.826;2023-11-21T05:00:34;8.07;;;4.40;;
81154;SDS011;70631;50.436;7.826;2023-11-21T05:03:00;7.68;;;3.88;;
81154;SDS011;70631;50.436;7.826;2023-11-21T05:05:29;7.85;;;4.25;;
81154;SDS011;70631;50.436;7.826;2023-11-21T05:07:54;5.22;;;3.47;;
81154;SDS011;70631;50.436;7.826;2023-11-21T05:10:20;6.38;;;3.78;;
81154;SDS011;70631;50.436;7.826;2023-11-21T05:12:45;7.30;;;3.63;;
81154;SDS011;70631;50.436;7.826;2023-11-21T05:15:13;5.80;;;3.78;;
81154;SDS011;70631;50.436;7.826;2023-11-21T05:17:39;5.35;;;3.58;;
81154;SDS011;70631;50.436;7.826;2023-11-21T05:20:09;7.22;;;3.97;;
81154;SDS011;70631;50.436;7.826;2023-11-21T05:22:36;5.95;;;4.03;;
81154;SDS011;70631;50.436;7.826;2023-11-21T05:25:02;7.05;;;4.25;;
81154;SDS011;70631;50.436;7.826;2023-11-21T05:27:29;6.03;;;3.63;;
81154;SDS011;70631;50.436;7.826;2023-11-21T05:29:55;7.22;;;4.63;;
81154;SDS011;70631;50.436;7.826;2023-11-21T05:32:21;7.68;;;4.60;;
81154;SDS011;70631;50.436;7.826;2023-11-21T05:34:47;9.90;;;4.78;;
81154;SDS011;70631;50.436;7.826;2023-11-21T05:37:13;7.23;;;4.40;;
81154;SDS011;70631;50.436;7.826;2023-11-21T05:39:38;6.40;;;3.90;;
81154;SDS011;70631;50.436;7.826;2023-11-21T05:42:03;6.50;;;4.63;;
81154;SDS011;70631;50.436;7.826;2023-11-21T05:44:29;8.30;;;5.10;;
81154;SDS011;70631;50.436;7.826;2023-11-21T05:46:54;6.07;;;3.92;;
81154;SDS011;70631;50.436;7.826;2023-11-21T05:49:20;10.25;;;5.68;;
81154;SDS011;70631;50.436;7.826;2023-11-21T05:51:48;10.50;;;6.10;;
81154;SDS011;70631;50.436;7.826;2023-11-21T05:54:13;9.20;;;5.77;;
81154;SDS011;70631;50.436;7.826;2023-11-21T05:56:38;11.13;;;5.60;;
81154;SDS011;70631;50.436;7.826;2023-11-21T05:59:04;8.80;;;5.20;;
81154;SDS011;70631;50.436;7.826;2023-11-21T06:01:29;12.70;;;6.47;;
81154;SDS011;70631;50.436;7.826;2023-11-21T06:03:54;9.17;;;5.53;;
81154;SDS011;70631;50.436;7.826;2023-11-21T06:06:24;8.55;;;5.75;;
81154;SDS011;70631;50.436;7.826;2023-11-21T06:08:49;10.90;;;6.22;;
81154;SDS011;70631;50.436;7.826;2023-11-21T06:11:15;12.18;;;6.35;;
81154;SDS011;70631;50.436;7.826;2023-11-21T06:13:41;11.30;;;5.88;;
81154;SDS011;70631;50.436;7.826;2023-11-21T06:16:07;8.85;;;5.60;;
81154;SDS011;70631;50.436;7.826;2023-11-21T06:18:32;8.02;;;5.38;;
81154;SDS011;70631;50.436;7.826;2023-11-21T06:20:57;9.07;;;6.17;;
81154;SDS011;70631;50.436;7.826;2023-11-21T06:23:25;11.18;;;6.45;;
81154;SDS011;70631;50.436;7.826;2023-11-21T06:25:50;10.00;;;5.77;;
81154;SDS011;70631;50.436;7.826;2023-11-21T06:28:16;9.65;;;6.25;;
81154;SDS011;70631;50.436;7.826;2023-11-21T06:30:42;14.57;;;7.80;;
81154;SDS011;70631;50.436;7.826;2023-11-21T06:33:09;11.02;;;6.30;;
81154;SDS011;70631;50.436;7.826;2023-11-21T06:35:34;12.37;;;7.50;;
81154;SDS011;70631;50.436;7.826;2023-11-21T06:37:59;15.13;;;7.63;;
81154;SDS011;70631;50.436;7.826;2023-11-21T06:40:25;14.95;;;7.82;;
81154;SDS011;70631;50.436;7.826;2023-11-21T06:42:50;14.67;;;7.67;;
81154;SDS011;70631;50.436;7.826;2023-11-21T06:45:16;11.70;;;6.60;;
81154;SDS011;70631;50.436;7.826;2023-11-21T06:47:41;13.82;;;8.02;;
81154;SDS011;70631;50.436;7.826;2023-11-21T06:50:07;15.85;;;8.18;;
81154;SDS011;70631;50.436;7.826;2023-11-21T06:52:33;14.93;;;9.05;;
81154;SDS011;70631;50.436;7.826;2023-11-21T06:54:58;16.00;;;9.50;;
81154;SDS011;70631;50.436;7.826;2023-11-21T06:57:23;16.37;;;8.83;;
81154;SDS011;70631;50.436;7.826;2023-11-21T06:59:49;14.02;;;8.65;;
81154;SDS011;70631;50.436;7.826;2023-11-21T07:02:15;18.83;;;9.30;;
81154;SDS011;70631;50.436;7.826;2023-11-21T07:04:43;14.63;;;8.25;;
81154;SDS011;70631;50.436;7.826;2023-11-21T07:07:10;14.45;;;7.97;;
81154;SDS011;70631;50.436;7.826;2023-11-21T07:09:35;12.45;;;8.25;;
81154;SDS011;70631;50.436;7.826;2023-11-21T07:12:00;18.97;;;9.13;;
81154;SDS011;70631;50.436;7.826;2023-11-21T07:14:28;15.93;;;8.40;;
81154;SDS011;70631;50.436;7.826;2023-11-21T07:16:54;15.18;;;8.75;;
81154;SDS011;70631;50.436;7.826;2023-11-21T07:19:19;15.83;;;8.97;;
81154;SDS011;70631;50.436;7.826;2023-11-21T07:21:45;15.25;;;8.70;;
81154;SDS011;70631;50.436;7.826;2023-11-21T07:24:10;19.52;;;9.73;;
81154;SDS011;70631;50.436;7.826;2023-11-21T07:26:36;14.85;;;8.45;;
81154;SDS011;70631;50.436;7.826;2023-11-21T07:29:01;17.10;;;10.20;;
81154;SDS011;70631;50.436;7.826;2023-11-21T07:31:27;17.83;;;9.75;;
81154;SDS011;70631;50.436;7.826;2023-11-21T07:33:54;21.20;;;10.05;;
81154;SDS011;70631;50.436;7.826;2023-11-21T07:36:22;14.82;;;7.82;;
81154;SDS011;70631;50.436;7.826;2023-11-21T07:38:48;15.18;;;8.85;;
81154;SDS011;70631;50.436;7.826;2023-11-21T07:41:14;17.75;;;9.50;;
81154;SDS011;70631;50.436;7.826;2023-11-21T07:43:42;14.15;;;9.23;;
81154;SDS011;70631;50.436;7.826;2023-11-21T07:46:08;14.75;;;8.65;;
81154;SDS011;70631;50.436;7.826;2023-11-21T07:48:34;16.13;;;8.77;;
81154;SDS011;70631;50.436;7.826;2023-11-21T07:51:00;15.75;;;9.25;;
81154;SDS011;70631;50.436;7.826;2023-11-21T07:53:28;17.10;;;10.00;;
81154;SDS011;70631;50.436;7.826;2023-11-21T07:55:58;18.30;;;9.73;;
81154;SDS011;70631;50.436;7.826;2023-11-21T07:58:27;18.73;;;10.07;;
81154;SDS011;70631;50.436;7.826;2023-11-21T08:00:53;19.77;;;10.75;;
81154;SDS011;70631;50.436;7.826;2023-11-21T08:03:18;19.63;;;9.83;;
81154;SDS011;70631;50.436;7.826;2023-11-21T08:05:43;19.97;;;10.13;;
81154;SDS011;70631;50.436;7.826;2023-11-21T08:08:09;19.33;;;9.93;;
81154;SDS011;70631;50.436;7.826;2023-11-21T08:10:35;17.52;;;9.65;;
81154;SDS011;70631;50.436;7.826;2023-11-21T08:13:01;18.80;;;11.30;;
81154;SDS011;70631;50.436;7.826;2023-11-21T08:15:26;19.75;;;11.50;;
81154;SDS011;70631;50.436;7.826;2023-11-21T08:17:52;18.95;;;10.63;;
81154;SDS011;70631;50.436;7.826;2023-11-21T08:20:17;18.70;;;11.17;;
81154;SDS011;70631;50.436;7.826;2023-11-21T08:22:45;21.63;;;10.33;;
81154;SDS011;70631;50.436;7.826;2023-11-21T08:25:12;20.02;;;10.80;;
81154;SDS011;70631;50.436;7.826;2023-11-21T08:27:38;20.93;;;10.07;;
81154;SDS011;70631;50.436;7.826;2023-11-21T08:30:03;16.65;;;9.32;;
81154;SDS011;70631;50.436;7.826;2023-11-21T08:32:29;19.15;;;10.10;;
81154;SDS011;70631;50.436;7.826;2023-11-21T08:34:57;23.45;;;11.73;;
81154;SDS011;70631;50.436;7.826;2023-11-21T08:37:22;20.98;;;11.48;;
81154;SDS011;70631;50.436;7.826;2023-11-21T08:39:49;20.95;;;10.32;;
81154;SDS011;70631;50.436;7.826;2023-11-21T08:42:14;18.45;;;10.20;;
81154;SDS011;70631;50.436;7.826;2023-11-21T08:44:40;22.40;;;10.87;;
81154;SDS011;70631;50.436;7.826;2023-11-21T08:47:05;18.52;;;10.00;;
81154;SDS011;70631;50.436;7.826;2023-11-21T08:49:31;20.58;;;10.40;;
81154;SDS011;70631;50.436;7.826;2023-11-21T08:51:57;23.73;;;11.32;;
81154;SDS011;70631;50.436;7.826;2023-11-21T08:54:24;19.83;;;11.05;;
81154;SDS011;70631;50.436;7.826;2023-11-21T08:56:51;21.63;;;11.40;;
81154;SDS011;70631;50.436;7.826;2023-11-21T08:59:17;19.70;;;10.85;;
81154;SDS011;70631;50.436;7.826;2023-11-21T09:01:42;16.77;;;8.97;;
81154;SDS011;70631;50.436;7.826;2023-11-21T09:04:07;20.38;;;10.05;;
81154;SDS011;70631;50.436;7.826;2023-11-21T09:06:33;18.67;;;9.85;;
81154;SDS011;70631;50.436;7.826;2023-11-21T09:08:58;22.17;;;11.60;;
81154;SDS011;70631;50.436;7.826;2023-11-21T09:11:23;17.03;;;10.37;;
81154;SDS011;70631;50.436;7.826;2023-11-21T09:13:50;19.17;;;9.98;;
81154;SDS011;70631;50.436;7.826;2023-11-21T09:16:16;21.40;;;10.40;;
81154;SDS011;70631;50.436;7.826;2023-11-21T09:18:41;22.02;;;11.30;;
81154;SDS011;70631;50.436;7.826;2023-11-21T09:21:07;19.17;;;10.55;;
81154;SDS011;70631;50.436;7.826;2023-11-21T09:23:33;15.95;;;9.07;;
81154;SDS011;70631;50.436;7.826;2023-11-21T09:25:59;20.63;;;10.10;;
81154;SDS011;70631;50.436;7.826;2023-11-21T09:28:25;20.75;;;10.45;;
81154;SDS011;70631;50.436;7.826;2023-11-21T09:30:52;17.42;;;9.45;;
81154;SDS011;70631;50.436;7.826;2023-11-21T09:33:17;19.48;;;11.00;;
81154;SDS011;70631;50.436;7.826;2023-11-21T09:35:43;20.77;;;11.23;;
81154;SDS011;70631;50.436;7.826;2023-11-21T09:38:08;47.58;;;22.58;;
81154;SDS011;70631;50.436;7.826;2023-11-21T09:40:35;21.98;;;11.20;;
81154;SDS011;70631;50.436;7.826;2023-11-21T09:43:02;19.08;;;10.52;;
81154;SDS011;70631;50.436;7.826;2023-11-21T09:45:34;25.33;;;12.60;;
81154;SDS011;70631;50.436;7.826;2023-11-21T09:48:00;20.88;;;11.82;;
81154;SDS011;70631;50.436;7.826;2023-11-21T09:50:26;21.95;;;11.98;;
81154;SDS011;70631;50.436;7.826;2023-11-21T09:55:43;23.10;;;10.82;;
81154;SDS011;70631;50.436;7.826;2023-11-21T09:58:09;20.63;;;11.70;;
81154;SDS011;70631;50.436;7.826;2023-11-21T10:00:39;18.92;;;10.65;;
81154;SDS011;70631;50.436;7.826;2023-11-21T10:03:05;20.48;;;11.38;;
81154;SDS011;70631;50.436;7.826;2023-11-21T10:05:30;24.55;;;13.55;;
81154;SDS011;70631;50.436;7.826;2023-11-21T10:07:59;23.35;;;12.25;;
81154;SDS011;70631;50.436;7.826;2023-11-21T10:10:25;25.00;;;13.13;;
81154;SDS011;70631;50.436;7.826;2023-11-21T10:12:52;21.15;;;12.43;;
81154;SDS011;70631;50.436;7.826;2023-11-21T10:15:21;21.98;;;11.38;;
81154;SDS011;70631;50.436;7.826;2023-11-21T10:17:51;22.63;;;12.38;;
81154;SDS011;70631;50.436;7.826;2023-11-21T10:20:18;18.10;;;10.77;;
81154;SDS011;70631;50.436;7.826;2023-11-21T10:22:44;19.02;;;10.48;;
81154;SDS011;70631;50.436;7.826;2023-11-21T10:25:10;19.48;;;11.52;;
81154;SDS011;70631;50.436;7.826;2023-11-21T10:27:39;22.75;;;12.15;;
81154;SDS011;70631;50.436;7.826;2023-11-21T10:30:06;20.05;;;10.93;;
81154;SDS011;70631;50.436;7.826;2023-11-21T10:32:37;23.20;;;12.63;;
81154;SDS011;70631;50.436;7.826;2023-11-21T10:35:06;18.58;;;10.25;;
81154;SDS011;70631;50.436;7.826;2023-11-21T10:37:37;20.83;;;11.27;;
81154;SDS011;70631;50.436;7.826;2023-11-21T10:40:05;19.85;;;10.80;;
81154;SDS011;70631;50.436;7.826;2023-11-21T10:42:35;21.25;;;11.63;;
81154;SDS011;70631;50.436;7.826;2023-11-21T10:45:00;19.38;;;11.13;;
81154;SDS011;70631;50.436;7.826;2023-11-21T10:47:27;33.63;;;14.52;;
81154;SDS011;70631;50.436;7.826;2023-11-21T10:49:52;16.83;;;9.80;;
81154;SDS011;70631;50.436;7.826;2023-11-21T10:52:21;18.05;;;10.40;;
81154;SDS011;70631;50.436;7.826;2023-11-21T10:54:46;23.48;;;10.77;;
81154;SDS011;70631;50.436;7.826;2023-11-21T10:57:13;52.13;;;21.30;;
81154;SDS011;70631;50.436;7.826;2023-11-21T10:59:42;22.95;;;13.75;;
81154;SDS011;70631;50.436;7.826;2023-11-21T11:04:52;30.35;;;15.88;;
81154;SDS011;70631;50.436;7.826;2023-11-21T11:07:18;47.97;;;20.95;;
81154;SDS011;70631;50.436;7.826;2023-11-21T11:09:49;43.97;;;14.45;;
81154;SDS011;70631;50.436;7.826;2023-11-21T11:12:15;46.05;;;19.38;;
81154;SDS011;70631;50.436;7.826;2023-11-21T11:14:42;23.33;;;10.35;;
81154;SDS011;70631;50.436;7.826;2023-11-21T11:17:09;21.17;;;11.35;;
81154;SDS011;70631;50.436;7.826;2023-11-21T11:19:35;21.15;;;10.90;;
81154;SDS011;70631;50.436;7.826;2023-11-21T11:32:34;14.98;;;8.52;;
81154;SDS011;70631;50.436;7.826;2023-11-21T11:35:19;17.67;;;10.68;;
81154;SDS011;70631;50.436;7.826;2023-11-21T11:37:49;22.33;;;10.57;;
81154;SDS011;70631;50.436;7.826;2023-11-21T11:40:15;15.43;;;9.23;;
81154;SDS011;70631;50.436;7.826;2023-11-21T11:42:55;18.23;;;9.82;;
81154;SDS011;70631;50.436;7.826;2023-11-21T11:45:22;18.17;;;8.93;;
81154;SDS011;70631;50.436;7.826;2023-11-21T11:47:56;21.60;;;9.20;;
81154;SDS011;70631;50.436;7.826;2023-11-21T11:50:22;20.33;;;9.80;;
81154;SDS011;70631;50.436;7.826;2023-11-21T11:52:48;14.35;;;7.97;;
81154;SDS011;70631;50.436;7.826;2023-11-21T11:55:16;14.90;;;8.90;;
81154;SDS011;70631;50.436;7.826;2023-11-21T11:57:46;14.25;;;8.45;;
81154;SDS011;70631;50.436;7.826;2023-11-21T12:02:55;16.52;;;8.02;;
81154;SDS011;70631;50.436;7.826;2023-11-21T12:05:28;12.13;;;7.45;;
81154;SDS011;70631;50.436;7.826;2023-11-21T12:07:58;15.93;;;8.00;;
81154;SDS011;70631;50.436;7.826;2023-11-21T12:10:26;11.75;;;7.03;;
81154;SDS011;70631;50.436;7.826;2023-11-21T12:12:54;15.10;;;7.82;;
81154;SDS011;70631;50.436;7.826;2023-11-21T12:15:21;13.88;;;8.20;;
81154;SDS011;70631;50.436;7.826;2023-11-21T12:17:47;18.00;;;8.40;;
81154;SDS011;70631;50.436;7.826;2023-11-21T12:20:14;15.55;;;8.77;;
81154;SDS011;70631;50.436;7.826;2023-11-21T12:22:51;15.13;;;8.10;;
81154;SDS011;70631;50.436;7.826;2023-11-21T12:27:50;17.25;;;8.38;;
81154;SDS011;70631;50.436;7.826;2023-11-21T12:30:17;16.65;;;8.88;;
81154;SDS011;70631;50.436;7.826;2023-11-21T12:32:44;16.40;;;9.02;;
81154;SDS011;70631;50.436;7.826;2023-11-21T12:35:13;17.27;;;8.55;;
81154;SDS011;70631;50.436;7.826;2023-11-21T12:37:38;15.38;;;9.27;;
81154;SDS011;70631;50.436;7.826;2023-11-21T12:40:05;17.92;;;9.45;;
81154;SDS011;70631;50.436;7.826;2023-11-21T12:42:32;20.83;;;10.23;;
81154;SDS011;70631;50.436;7.826;2023-11-21T12:48:01;15.18;;;9.30;;
81154;SDS011;70631;50.436;7.826;2023-11-21T12:50:32;18.58;;;10.82;;
81154;SDS011;70631;50.436;7.826;2023-11-21T12:52:59;21.75;;;12.20;;
81154;SDS011;70631;50.436;7.826;2023-11-21T12:55:29;25.90;;;11.88;;
81154;SDS011;70631;50.436;7.826;2023-11-21T12:58:01;22.25;;;11.45;;
81154;SDS011;70631;50.436;7.826;2023-11-21T13:03:05;17.60;;;11.73;;
81154;SDS011;70631;50.436;7.826;2023-11-21T13:05:35;19.25;;;10.30;;
81154;SDS011;70631;50.436;7.826;2023-11-21T13:08:05;20.30;;;11.10;;
81154;SDS011;70631;50.436;7.826;2023-11-21T13:10:38;25.90;;;11.60;;
81154;SDS011;70631;50.436;7.826;2023-11-21T13:13:07;20.33;;;10.82;;
81154;SDS011;70631;50.436;7.826;2023-11-21T13:15:46;20.02;;;10.65;;
81154;SDS011;70631;50.436;7.826;2023-11-21T13:18:13;21.27;;;11.65;;
81154;SDS011;70631;50.436;7.826;2023-11-21T13:20:39;22.43;;;12.13;;
81154;SDS011;70631;50.436;7.826;2023-11-21T13:23:09;22.15;;;11.70;;
81154;SDS011;70631;50.436;7.826;2023-11-21T13:25:38;21.88;;;11.85;;
81154;SDS011;70631;50.436;7.826;2023-11-21T13:28:06;23.73;;;11.85;;
81154;SDS011;70631;50.436;7.826;2023-11-21T13:30:32;20.58;;;11.20;;
81154;SDS011;70631;50.436;7.826;2023-11-21T13:33:01;20.33;;;10.95;;
81154;SDS011;70631;50.436;7.826;2023-11-21T13:35:34;21.67;;;11.57;;
81154;SDS011;70631;50.436;7.826;2023-11-21T13:38:08;20.30;;;11.98;;
81154;SDS011;70631;50.436;7.826;2023-11-21T13:40:37;23.42;;;11.02;;
81154;SDS011;70631;50.436;7.826;2023-11-21T13:43:17;23.45;;;11.75;;
81154;SDS011;70631;50.436;7.826;2023-11-21T13:45:47;20.63;;;11.20;;
81154;SDS011;70631;50.436;7.826;2023-11-21T13:48:16;20.75;;;10.98;;
81154;SDS011;70631;50.436;7.826;2023-11-21T13:50:53;21.55;;;11.18;;
81154;SDS011;70631;50.436;7.826;2023-11-21T13:53:24;20.23;;;10.93;;
81154;SDS011;70631;50.436;7.826;2023-11-21T13:55:55;23.70;;;13.30;;
81154;SDS011;70631;50.436;7.826;2023-11-21T13:58:22;18.63;;;10.35;;
81154;SDS011;70631;50.436;7.826;2023-11-21T14:01:06;23.60;;;11.93;;
81154;SDS011;70631;50.436;7.826;2023-11-21T14:03:38;22.73;;;10.75;;
81154;SDS011;70631;50.436;7.826;2023-11-21T14:06:15;23.45;;;11.45;;
81154;SDS011;70631;50.436;7.826;2023-11-21T14:08:46;17.35;;;10.20;;
81154;SDS011;70631;50.436;7.826;2023-11-21T14:11:12;18.27;;;10.00;;
81154;SDS011;70631;50.436;7.826;2023-11-21T14:13:42;22.98;;;11.43;;
81154;SDS011;70631;50.436;7.826;2023-11-21T14:16:11;18.67;;;10.27;;
81154;SDS011;70631;50.436;7.826;2023-11-21T14:18:36;18.00;;;9.93;;
81154;SDS011;70631;50.436;7.826;2023-11-21T14:21:08;19.98;;;10.07;;
81154;SDS011;70631;50.436;7.826;2023-11-21T14:23:35;22.98;;;12.90;;
81154;SDS011;70631;50.436;7.826;2023-11-21T14:26:03;17.08;;;9.82;;
81154;SDS011;70631;50.436;7.826;2023-11-21T14:28:31;18.45;;;10.00;;
81154;SDS011;70631;50.436;7.826;2023-11-21T14:30:56;18.10;;;9.73;;
81154;SDS011;70631;50.436;7.826;2023-11-21T14:33:22;17.87;;;9.90;;
81154;SDS011;70631;50.436;7.826;2023-11-21T14:35:47;21.95;;;8.98;;
81154;SDS011;70631;50.436;7.826;2023-11-21T14:38:13;18.93;;;10.37;;
81154;SDS011;70631;50.436;7.826;2023-11-21T14:40:39;18.48;;;10.52;;
81154;SDS011;70631;50.436;7.826;2023-11-21T14:43:04;17.47;;;9.50;;
81154;SDS011;70631;50.436;7.826;2023-11-21T14:45:33;19.67;;;9.55;;
81154;SDS011;70631;50.436;7.826;2023-11-21T14:47:59;14.75;;;8.60;;
81154;SDS011;70631;50.436;7.826;2023-11-21T14:50:31;19.48;;;10.60;;
81154;SDS011;70631;50.436;7.826;2023-11-21T14:53:07;21.38;;;11.38;;
81154;SDS011;70631;50.436;7.826;2023-11-21T14:55:33;21.52;;;10.68;;
81154;SDS011;70631;50.436;7.826;2023-11-21T14:58:16;20.45;;;9.88;;